Time;durP1;ratioP1;P1;durP2;ratioP2;P2;SDS_P1;SDS_P2;PMS_P1;PMS_P2;Temp;Humidity;BMP_temperature;BMP_pressure;BME280_temperature;BME280_humidity;BME280_pressure;Samples;Min_cycle;Max_cycle;Signal;HPM_P1;HPM_P2
2021/09/22 00:01:43;;;;;;;27.05;15.82;;;;;;;;;;5035658;28;20045;-64
2021/09/22 00:04:10;;;;;;;29.40;16.65;;;;;;;;;;5035421;28;20049;-65
2021/09/22 00:06:37;;;;;;;24.42;15.95;;;;;;;;;;5035630;28;20045;-65
2021/09/22 00:09:04;;;;;;;24.73;15.05;;;;;;;;;;5035261;28;20052;-65
2021/09/22 00:11:31;;;;;;;23.33;14.77;;;;;;;;;;5035213;28;20045;-65
2021/09/22 00:13:58;;;;;;;28.70;15.90;;;;;;;;;;5035126;28;20079;-65
2021/09/22 00:16:28;;;;;;;25.35;14.55;;;;;;;;;;5035387;28;20045;-65
2021/09/22 00:18:55;;;;;;;26.85;15.65;;;;;;;;;;5035353;28;20060;-65
2021/09/22 00:21:22;;;;;;;26.98;16.75;;;;;;;;;;5035207;28;20045;-65
2021/09/22 00:23:49;;;;;;;27.15;15.50;;;;;;;;;;5034997;28;20056;-65
2021/09/22 00:26:16;;;;;;;27.60;16.13;;;;;;;;;;5035529;28;20062;-66
2021/09/22 00:28:43;;;;;;;22.65;14.95;;;;;;;;;;5035306;28;20409;-66
2021/09/22 00:31:10;;;;;;;28.25;16.95;;;;;;;;;;5035163;28;20100;-66
2021/09/22 00:33:39;;;;;;;26.50;15.95;;;;;;;;;;5034909;28;20133;-67
2021/09/22 00:36:06;;;;;;;29.50;17.65;;;;;;;;;;5035026;28;20054;-65
2021/09/22 00:38:33;;;;;;;29.10;16.50;;;;;;;;;;5035028;28;20399;-66
2021/09/22 00:41:00;;;;;;;24.45;14.32;;;;;;;;;;5034770;28;20136;-65
2021/09/22 00:43:27;;;;;;;27.20;14.55;;;;;;;;;;5034587;28;20057;-67
2021/09/22 00:45:54;;;;;;;26.88;15.52;;;;;;;;;;5034719;28;20041;-67
2021/09/22 00:48:22;;;;;;;26.23;15.18;;;;;;;;;;5034755;28;20060;-67
2021/09/22 00:50:51;;;;;;;26.85;15.68;;;;;;;;;;5034673;28;20048;-67
2021/09/22 00:53:18;;;;;;;26.83;16.10;;;;;;;;;;5037076;28;20045;-66
2021/09/22 00:55:45;;;;;;;26.67;15.10;;;;;;;;;;5034700;28;20076;-65
2021/09/22 00:58:12;;;;;;;26.70;15.15;;;;;;;;;;5034583;28;20140;-66
2021/09/22 01:00:39;;;;;;;25.05;15.07;;;;;;;;;;5034860;28;20477;-66
2021/09/22 01:03:06;;;;;;;27.80;15.65;;;;;;;;;;5036051;28;20054;-66
2021/09/22 01:05:34;;;;;;;26.45;16.60;;;;;;;;;;5036578;28;20048;-66
2021/09/22 01:08:04;;;;;;;26.73;15.85;;;;;;;;;;5036868;28;20041;-66
2021/09/22 01:10:31;;;;;;;27.65;14.80;;;;;;;;;;5035127;28;20053;-64
2021/09/22 01:12:59;;;;;;;25.58;14.75;;;;;;;;;;5034378;28;20049;-66
2021/09/22 01:15:28;;;;;;;24.90;16.23;;;;;;;;;;5034143;28;20417;-67
2021/09/22 01:17:56;;;;;;;24.25;14.50;;;;;;;;;;5034462;28;20132;-67
2021/09/22 01:20:23;;;;;;;26.80;16.60;;;;;;;;;;5035350;28;20076;-65
2021/09/22 01:22:51;;;;;;;28.27;16.42;;;;;;;;;;5034583;28;20052;-66
2021/09/22 01:25:19;;;;;;;27.38;16.08;;;;;;;;;;5034082;28;20056;-66
2021/09/22 01:27:48;;;;;;;27.67;15.90;;;;;;;;;;5033950;28;20057;-66
2021/09/22 01:30:15;;;;;;;26.70;15.77;;;;;;;;;;5033813;28;20046;-66
2021/09/22 01:32:50;;;;;;;28.35;16.20;;;;;;;;;;5034035;28;20491;-65
2021/09/22 01:35:17;;;;;;;27.35;16.33;;;;;;;;;;5033682;28;20494;-65
2021/09/22 01:37:44;;;;;;;26.80;14.27;;;;;;;;;;5033845;28;20132;-64
2021/09/22 01:40:13;;;;;;;29.50;16.83;;;;;;;;;;5033562;28;20052;-66
2021/09/22 01:42:41;;;;;;;27.50;15.05;;;;;;;;;;5033781;28;20050;-65
2021/09/22 01:45:10;;;;;;;27.40;15.30;;;;;;;;;;5033616;28;20096;-66
2021/09/22 01:47:37;;;;;;;27.90;15.10;;;;;;;;;;5033623;28;20085;-66
2021/09/22 01:50:07;;;;;;;25.45;14.68;;;;;;;;;;5044053;22;20140;-68
2021/09/22 01:52:34;;;;;;;23.70;14.00;;;;;;;;;;5034055;28;20049;-69
2021/09/22 01:55:01;;;;;;;26.88;14.55;;;;;;;;;;5033267;28;20049;-69
2021/09/22 01:57:30;;;;;;;28.40;15.60;;;;;;;;;;5033717;28;20414;-69
2021/09/22 01:59:57;;;;;;;26.15;14.05;;;;;;;;;;5033406;28;20425;-68
2021/09/22 02:02:24;;;;;;;27.10;16.30;;;;;;;;;;5033623;28;20129;-69
2021/09/22 02:04:51;;;;;;;26.88;15.00;;;;;;;;;;5032937;28;20056;-69
2021/09/22 02:07:18;;;;;;;28.10;16.00;;;;;;;;;;5033088;28;20056;-69
2021/09/22 02:09:45;;;;;;;27.52;15.65;;;;;;;;;;5033174;28;20136;-69
2021/09/22 02:12:12;;;;;;;28.10;15.18;;;;;;;;;;5033441;28;20052;-69
2021/09/22 02:14:40;;;;;;;33.55;16.67;;;;;;;;;;5033085;28;20053;-69
2021/09/22 02:17:07;;;;;;;30.67;15.90;;;;;;;;;;5033172;28;20059;-69
2021/09/22 02:19:36;;;;;;;28.67;15.73;;;;;;;;;;5031867;28;20053;-69
2021/09/22 02:22:03;;;;;;;29.98;15.98;;;;;;;;;;5032963;28;20490;-68
2021/09/22 02:24:30;;;;;;;27.95;16.27;;;;;;;;;;5032916;28;20132;-69
2021/09/22 02:26:57;;;;;;;30.65;16.33;;;;;;;;;;5032962;28;20248;-68
2021/09/22 02:29:25;;;;;;;26.30;15.15;;;;;;;;;;5032771;28;20057;-68
2021/09/22 02:31:54;;;;;;;28.85;16.33;;;;;;;;;;5032628;28;20053;-69
2021/09/22 02:34:21;;;;;;;28.67;17.08;;;;;;;;;;5032407;28;20502;-69
2021/09/22 02:36:48;;;;;;;28.02;15.98;;;;;;;;;;5032657;28;20049;-69
2021/09/22 02:39:15;;;;;;;26.98;15.70;;;;;;;;;;5032762;28;20049;-69
2021/09/22 02:41:42;;;;;;;30.45;14.90;;;;;;;;;;5033083;28;20506;-69
2021/09/22 02:44:09;;;;;;;29.60;16.52;;;;;;;;;;5032555;28;20053;-68
2021/09/22 02:46:36;;;;;;;26.42;15.65;;;;;;;;;;5032428;28;20489;-69
2021/09/22 02:49:05;;;;;;;26.75;14.35;;;;;;;;;;5032233;28;20057;-69
2021/09/22 02:51:32;;;;;;;28.67;15.45;;;;;;;;;;5032403;28;20129;-68
2021/09/22 02:53:59;;;;;;;27.67;15.50;;;;;;;;;;5032336;28;20421;-69
2021/09/22 02:56:26;;;;;;;24.63;14.55;;;;;;;;;;5016965;28;20054;-68
2021/09/22 02:58:53;;;;;;;26.95;15.57;;;;;;;;;;5012685;28;20046;-69
2021/09/22 03:01:20;;;;;;;26.17;14.15;;;;;;;;;;5012428;28;20418;-69
2021/09/22 03:03:47;;;;;;;29.58;15.15;;;;;;;;;;5012472;28;20646;-69
2021/09/22 03:06:16;;;;;;;31.15;16.65;;;;;;;;;;5012519;28;20041;-69
2021/09/22 03:08:43;;;;;;;28.70;17.42;;;;;;;;;;5012457;28;20085;-69
2021/09/22 03:11:10;;;;;;;28.67;15.50;;;;;;;;;;5012183;28;20136;-69
2021/09/22 03:13:38;;;;;;;27.08;16.35;;;;;;;;;;5012516;28;20563;-69
2021/09/22 03:16:07;;;;;;;30.73;16.85;;;;;;;;;;5012288;28;20053;-69
2021/09/22 03:18:34;;;;;;;28.83;17.17;;;;;;;;;;5012577;28;20046;-68
2021/09/22 03:21:01;;;;;;;27.95;16.02;;;;;;;;;;5012490;28;20081;-68
2021/09/22 03:23:30;;;;;;;30.90;17.73;;;;;;;;;;5012306;28;20497;-69
2021/09/22 03:25:58;;;;;;;25.02;15.05;;;;;;;;;;5011715;28;20084;-69
2021/09/22 03:28:25;;;;;;;31.35;17.33;;;;;;;;;;5012152;28;20057;-66
2021/09/22 03:30:53;;;;;;;30.88;17.92;;;;;;;;;;5011733;28;20050;-67
2021/09/22 03:33:20;;;;;;;29.48;15.80;;;;;;;;;;5011976;28;20048;-67
2021/09/22 03:35:47;;;;;;;27.70;16.30;;;;;;;;;;5011901;28;20056;-66
2021/09/22 03:38:14;;;;;;;30.23;15.68;;;;;;;;;;5012125;28;20116;-67
2021/09/22 03:40:42;;;;;;;29.42;16.13;;;;;;;;;;5012006;28;20136;-67
2021/09/22 03:43:10;;;;;;;30.00;16.15;;;;;;;;;;5011971;28;20137;-66
2021/09/22 03:45:37;;;;;;;28.67;16.80;;;;;;;;;;5012136;28;20045;-67
2021/09/22 03:48:05;;;;;;;29.67;16.75;;;;;;;;;;5011861;28;20052;-67
2021/09/22 03:50:32;;;;;;;35.25;18.48;;;;;;;;;;5011669;28;20052;-67
2021/09/22 03:52:59;;;;;;;31.10;18.95;;;;;;;;;;5012420;28;20132;-67
2021/09/22 03:55:26;;;;;;;29.75;16.52;;;;;;;;;;5018902;28;20132;-67
2021/09/22 03:57:55;;;;;;;30.52;17.30;;;;;;;;;;5032141;28;20085;-67
2021/09/22 04:00:22;;;;;;;30.33;17.15;;;;;;;;;;5031485;28;20517;-67
2021/09/22 04:02:49;;;;;;;31.67;16.70;;;;;;;;;;5031508;28;20049;-68
2021/09/22 04:05:16;;;;;;;26.00;15.65;;;;;;;;;;5031513;28;20063;-67
2021/09/22 04:07:43;;;;;;;28.80;15.48;;;;;;;;;;5031699;28;20139;-67
2021/09/22 04:10:11;;;;;;;28.52;16.73;;;;;;;;;;5031582;28;20418;-67
2021/09/22 04:12:38;;;;;;;28.73;15.75;;;;;;;;;;5031217;28;20053;-67
2021/09/22 04:15:08;;;;;;;27.23;16.58;;;;;;;;;;5031487;28;20309;-67
2021/09/22 04:17:35;;;;;;;26.85;16.88;;;;;;;;;;5031600;28;20550;-67
2021/09/22 04:20:02;;;;;;;28.00;16.40;;;;;;;;;;5031434;28;20042;-67
2021/09/22 04:22:29;;;;;;;32.58;15.77;;;;;;;;;;5031556;28;20050;-67
2021/09/22 04:24:56;;;;;;;28.60;16.17;;;;;;;;;;5031416;28;20486;-67
2021/09/22 04:27:23;;;;;;;30.25;15.70;;;;;;;;;;5031894;28;20132;-67
2021/09/22 04:29:50;;;;;;;25.60;15.45;;;;;;;;;;5031422;28;20418;-67
2021/09/22 04:32:18;;;;;;;30.20;16.40;;;;;;;;;;5031396;28;20132;-67
2021/09/22 04:34:46;;;;;;;26.45;15.55;;;;;;;;;;5031386;28;20120;-67
2021/09/22 04:37:13;;;;;;;31.73;17.48;;;;;;;;;;5032252;28;20144;-67
2021/09/22 04:39:40;;;;;;;33.65;17.17;;;;;;;;;;5034902;28;20049;-67
2021/09/22 04:42:07;;;;;;;26.05;15.32;;;;;;;;;;5034984;28;20490;-67
2021/09/22 04:44:34;;;;;;;27.65;16.10;;;;;;;;;;5034641;28;20084;-66
2021/09/22 04:47:01;;;;;;;27.65;15.68;;;;;;;;;;5034775;28;20046;-66
2021/09/22 04:49:29;;;;;;;27.83;15.90;;;;;;;;;;5034692;28;20057;-67
2021/09/22 04:51:56;;;;;;;32.10;16.77;;;;;;;;;;5034507;28;20059;-67
2021/09/22 04:54:23;;;;;;;27.55;16.52;;;;;;;;;;5034711;28;20054;-66
2021/09/22 04:56:50;;;;;;;27.20;15.55;;;;;;;;;;5015884;28;20045;-66
2021/09/22 04:59:17;;;;;;;29.20;15.30;;;;;;;;;;5014813;28;20159;-66
2021/09/22 05:01:47;;;;;;;29.50;16.27;;;;;;;;;;5014897;28;20054;-67
2021/09/22 05:04:14;;;;;;;33.65;16.70;;;;;;;;;;5014911;28;20456;-67
2021/09/22 05:06:42;;;;;;;30.13;16.63;;;;;;;;;;5014547;28;20050;-66
2021/09/22 05:09:09;;;;;;;28.45;16.45;;;;;;;;;;5014612;28;20054;-67
2021/09/22 05:11:36;;;;;;;30.10;15.48;;;;;;;;;;5014580;28;20392;-67
2021/09/22 05:14:03;;;;;;;29.98;16.20;;;;;;;;;;5014375;28;20050;-67
2021/09/22 05:16:30;;;;;;;31.98;17.23;;;;;;;;;;5014203;28;20173;-68
2021/09/22 05:18:57;;;;;;;28.25;14.48;;;;;;;;;;5014372;28;20052;-67
2021/09/22 05:21:24;;;;;;;29.33;15.20;;;;;;;;;;5014549;28;20392;-66
2021/09/22 05:23:53;;;;;;;30.83;16.58;;;;;;;;;;5013917;28;20053;-66
2021/09/22 05:26:20;;;;;;;32.72;17.08;;;;;;;;;;5013951;28;20054;-67
2021/09/22 05:28:46;;;;;;;30.17;17.85;;;;;;;;;;5014056;28;20072;-66
2021/09/22 05:31:14;;;;;;;32.92;16.23;;;;;;;;;;5013804;28;20053;-67
2021/09/22 05:33:41;;;;;;;30.27;17.10;;;;;;;;;;5013652;28;20422;-67
2021/09/22 05:36:08;;;;;;;32.65;15.82;;;;;;;;;;5014055;28;20107;-66
2021/09/22 05:38:35;;;;;;;27.33;16.48;;;;;;;;;;5013787;28;20160;-66
2021/09/22 05:41:03;;;;;;;29.98;16.77;;;;;;;;;;5013811;28;20085;-67
2021/09/22 05:43:30;;;;;;;28.08;14.73;;;;;;;;;;5013610;28;20056;-67
2021/09/22 05:45:57;;;;;;;27.95;15.85;;;;;;;;;;5013834;28;20054;-69
2021/09/22 05:48:24;;;;;;;30.48;15.50;;;;;;;;;;5013558;28;20506;-67
2021/09/22 05:50:51;;;;;;;28.35;15.80;;;;;;;;;;5013389;28;20050;-67
2021/09/22 05:53:19;;;;;;;30.60;15.70;;;;;;;;;;5013454;28;20050;-68
2021/09/22 05:55:47;;;;;;;32.60;16.38;;;;;;;;;;5023701;28;20502;-67
2021/09/22 05:58:16;;;;;;;29.38;15.68;;;;;;;;;;5033352;28;20132;-66
2021/09/22 06:00:43;;;;;;;31.75;16.75;;;;;;;;;;5033303;28;20080;-67
2021/09/22 06:03:10;;;;;;;34.03;18.27;;;;;;;;;;5032906;28;20095;-66
2021/09/22 06:05:39;;;;;;;31.40;17.42;;;;;;;;;;5033142;28;20132;-66
2021/09/22 06:08:07;;;;;;;37.97;17.23;;;;;;;;;;5033257;28;20061;-67
2021/09/22 06:10:34;;;;;;;32.58;17.13;;;;;;;;;;5033083;28;20053;-66
2021/09/22 06:13:01;;;;;;;31.58;16.90;;;;;;;;;;5033163;28;20081;-67
2021/09/22 06:15:30;;;;;;;30.58;16.02;;;;;;;;;;5032871;28;20049;-67
2021/09/22 06:17:57;;;;;;;34.55;15.93;;;;;;;;;;5033406;28;20076;-67
2021/09/22 06:20:24;;;;;;;34.92;17.83;;;;;;;;;;5033107;28;20049;-68
2021/09/22 06:22:51;;;;;;;30.85;16.67;;;;;;;;;;5033648;28;20533;-67
2021/09/22 06:25:18;;;;;;;32.58;16.73;;;;;;;;;;5032962;28;20487;-69
2021/09/22 06:27:45;;;;;;;33.00;16.38;;;;;;;;;;5033338;28;20482;-66
2021/09/22 06:30:13;;;;;;;35.30;18.58;;;;;;;;;;5032537;28;20052;-66
2021/09/22 06:32:42;;;;;;;31.73;16.67;;;;;;;;;;5032612;28;20535;-67
2021/09/22 06:35:11;;;;;;;31.08;16.45;;;;;;;;;;5032577;28;20049;-66
2021/09/22 06:37:38;;;;;;;32.20;17.75;;;;;;;;;;5032471;28;20129;-67
2021/09/22 06:40:07;;;;;;;33.53;17.48;;;;;;;;;;5032628;28;20103;-67
2021/09/22 06:42:34;;;;;;;31.52;16.42;;;;;;;;;;5032336;28;20064;-67
2021/09/22 06:45:01;;;;;;;32.45;18.88;;;;;;;;;;5032302;28;20530;-67
2021/09/22 06:47:28;;;;;;;36.33;17.48;;;;;;;;;;5032665;28;20132;-67
2021/09/22 06:49:56;;;;;;;33.25;18.02;;;;;;;;;;5032221;28;20103;-68
2021/09/22 06:52:23;;;;;;;32.15;18.30;;;;;;;;;;5032347;28;20486;-68
2021/09/22 06:54:50;;;;;;;33.05;18.45;;;;;;;;;;5032224;28;20521;-68
2021/09/22 06:57:17;;;;;;;34.03;17.85;;;;;;;;;;5033847;28;20063;-67
2021/09/22 06:59:44;;;;;;;33.72;16.65;;;;;;;;;;5032308;28;20056;-68
2021/09/22 07:02:11;;;;;;;33.00;18.17;;;;;;;;;;5031589;28;20052;-67
2021/09/22 07:04:39;;;;;;;33.55;17.92;;;;;;;;;;5031996;28;20056;-67
2021/09/22 07:07:08;;;;;;;28.42;16.85;;;;;;;;;;5031980;28;20475;-67
2021/09/22 07:09:35;;;;;;;32.88;17.13;;;;;;;;;;5024061;28;20053;-67
2021/09/22 07:12:02;;;;;;;30.75;16.65;;;;;;;;;;5010650;28;20050;-67
2021/09/22 07:14:36;;;;;;;29.63;16.52;;;;;;;;;;5010638;28;20419;-68
2021/09/22 07:17:04;;;;;;;28.15;15.85;;;;;;;;;;5010822;28;20491;-67
2021/09/22 07:19:31;;;;;;;31.27;16.58;;;;;;;;;;5010520;28;20046;-67
2021/09/22 07:21:59;;;;;;;30.33;15.50;;;;;;;;;;5010455;28;20111;-67
2021/09/22 07:24:28;;;;;;;27.38;15.63;;;;;;;;;;5010652;28;20050;-66
2021/09/22 07:26:55;;;;;;;28.20;16.02;;;;;;;;;;5010409;28;20081;-66
2021/09/22 07:29:22;;;;;;;31.15;16.92;;;;;;;;;;5009972;28;20057;-66
2021/09/22 07:31:49;;;;;;;29.88;16.52;;;;;;;;;;5009932;28;20050;-66
2021/09/22 07:34:17;;;;;;;33.25;17.50;;;;;;;;;;5010224;28;20370;-66
2021/09/22 07:36:44;;;;;;;29.85;16.88;;;;;;;;;;5010171;28;20064;-66
2021/09/22 07:39:11;;;;;;;26.13;15.20;;;;;;;;;;5010097;28;20045;-67
2021/09/22 07:41:40;;;;;;;26.67;15.27;;;;;;;;;;5010187;28;20495;-67
2021/09/22 07:44:07;;;;;;;28.52;14.93;;;;;;;;;;5009550;28;20065;-66
2021/09/22 07:46:34;;;;;;;28.58;15.52;;;;;;;;;;5010219;28;20137;-67
2021/09/22 07:49:01;;;;;;;30.27;18.35;;;;;;;;;;5009726;28;20045;-66
2021/09/22 07:51:28;;;;;;;28.13;16.20;;;;;;;;;;5009806;28;20076;-68
2021/09/22 07:53:55;;;;;;;27.40;15.45;;;;;;;;;;5009421;28;20054;-68
2021/09/22 07:56:22;;;;;;;27.38;14.77;;;;;;;;;;5024383;28;20049;-68
2021/09/22 07:58:51;;;;;;;33.45;14.82;;;;;;;;;;5029308;28;20057;-68
2021/09/22 08:01:18;;;;;;;25.02;14.85;;;;;;;;;;5029355;28;20049;-69
2021/09/22 08:03:44;;;;;;;27.08;14.85;;;;;;;;;;5029647;28;20064;-69
2021/09/22 08:06:11;;;;;;;21.33;12.98;;;;;;;;;;5029705;28;20050;-67
2021/09/22 08:08:38;;;;;;;26.58;15.25;;;;;;;;;;5029568;28;20045;-71
2021/09/22 08:11:05;;;;;;;30.40;16.48;;;;;;;;;;5029360;28;20053;-70
2021/09/22 08:13:32;;;;;;;27.75;14.77;;;;;;;;;;5032561;28;20517;-71
2021/09/22 08:16:01;;;;;;;26.17;13.85;;;;;;;;;;5033199;28;20566;-71
2021/09/22 08:18:28;;;;;;;26.10;14.63;;;;;;;;;;5033297;28;20053;-71
2021/09/22 08:20:55;;;;;;;32.58;15.30;;;;;;;;;;5032925;28;20049;-71
2021/09/22 08:23:22;;;;;;;27.05;14.45;;;;;;;;;;5032942;28;20053;-71
2021/09/22 08:25:50;;;;;;;25.10;13.77;;;;;;;;;;5033158;28;20049;-71
2021/09/22 08:28:17;;;;;;;28.67;15.05;;;;;;;;;;5033848;28;20129;-71
2021/09/22 08:30:44;;;;;;;29.65;15.43;;;;;;;;;;5032678;28;20063;-71
2021/09/22 08:33:12;;;;;;;28.55;15.40;;;;;;;;;;5032831;28;20053;-70
2021/09/22 08:35:40;;;;;;;23.02;14.15;;;;;;;;;;5032817;28;20225;-71
2021/09/22 08:38:07;;;;;;;22.48;13.55;;;;;;;;;;5032680;28;20045;-72
2021/09/22 08:40:34;;;;;;;25.08;13.57;;;;;;;;;;5032653;28;20060;-71
2021/09/22 08:43:01;;;;;;;23.10;13.43;;;;;;;;;;5033171;28;20490;-71
2021/09/22 08:45:33;;;;;;;22.05;12.82;;;;;;;;;;5032700;28;20414;-71
2021/09/22 08:48:00;;;;;;;24.33;13.77;;;;;;;;;;5032608;28;20058;-72
2021/09/22 08:50:28;;;;;;;23.58;13.93;;;;;;;;;;5032429;28;20055;-71
2021/09/22 08:52:56;;;;;;;29.08;15.80;;;;;;;;;;5032726;28;20056;-71
2021/09/22 08:55:23;;;;;;;26.15;15.52;;;;;;;;;;5025663;28;20058;-71
2021/09/22 08:57:50;;;;;;;33.03;17.90;;;;;;;;;;5012464;28;20458;-71
2021/09/22 09:00:17;;;;;;;30.73;17.20;;;;;;;;;;5012845;28;20374;-71
2021/09/22 09:02:46;;;;;;;27.17;15.40;;;;;;;;;;5012838;28;20065;-71
2021/09/22 09:05:16;;;;;;;22.90;12.55;;;;;;;;;;5013174;28;20128;-71
2021/09/22 09:07:54;;;;;;;22.83;12.90;;;;;;;;;;5013324;28;20050;-71
2021/09/22 09:10:24;;;;;;;23.27;13.23;;;;;;;;;;5013112;28;20097;-71
2021/09/22 09:13:02;;;;;;;29.65;17.05;;;;;;;;;;5012998;28;20085;-71
2021/09/22 09:15:34;;;;;;;28.23;15.32;;;;;;;;;;5012481;28;20499;-71
2021/09/22 09:18:02;;;;;;;22.52;13.70;;;;;;;;;;5012804;28;20568;-71
2021/09/22 09:20:32;;;;;;;21.38;12.23;;;;;;;;;;5012259;28;20466;-71
2021/09/22 09:23:09;;;;;;;18.58;11.98;;;;;;;;;;5012775;28;20053;-71
2021/09/22 09:25:40;;;;;;;18.88;11.85;;;;;;;;;;5011953;28;20480;-71
2021/09/22 09:28:19;;;;;;;22.15;13.07;;;;;;;;;;5012521;28;20137;-71
2021/09/22 09:30:47;;;;;;;20.65;11.43;;;;;;;;;;5012275;28;20137;-71
2021/09/22 09:33:40;;;;;;;19.20;11.25;;;;;;;;;;5012158;28;20398;-72
2021/09/22 09:36:26;;;;;;;21.02;11.55;;;;;;;;;;5012394;28;20050;-72
2021/09/22 09:38:58;;;;;;;18.92;11.20;;;;;;;;;;5012256;28;20045;-71
2021/09/22 09:41:29;;;;;;;17.50;10.52;;;;;;;;;;5012863;28;20165;-72
2021/09/22 09:43:56;;;;;;;19.80;11.50;;;;;;;;;;5012199;28;20058;-72
2021/09/22 09:46:25;;;;;;;18.48;10.90;;;;;;;;;;5012503;28;20248;-72
2021/09/22 09:49:02;;;;;;;16.13;8.55;;;;;;;;;;5012164;28;20418;-71
2021/09/22 09:51:43;;;;;;;16.13;8.93;;;;;;;;;;5011686;28;20518;-72
2021/09/22 09:54:18;;;;;;;14.68;9.30;;;;;;;;;;5011716;28;20089;-72
2021/09/22 09:56:46;;;;;;;20.42;11.05;;;;;;;;;;5029675;28;20053;-71
2021/09/22 09:59:13;;;;;;;14.30;9.18;;;;;;;;;;5032036;28;20570;-71
2021/09/22 10:01:42;;;;;;;15.38;9.82;;;;;;;;;;5013901;28;20582;-72
2021/09/22 10:04:11;;;;;;;11.80;6.95;;;;;;;;;;5011771;28;20090;-72
2021/09/22 10:06:39;;;;;;;10.40;6.00;;;;;;;;;;5011365;28;20057;-72
2021/09/22 10:09:07;;;;;;;14.75;8.27;;;;;;;;;;5011398;28;20050;-71
2021/09/22 10:11:37;;;;;;;13.32;7.80;;;;;;;;;;5011085;28;20050;-71
2021/09/22 10:14:05;;;;;;;13.32;7.22;;;;;;;;;;5011272;28;20081;-70
2021/09/22 10:16:34;;;;;;;14.05;7.68;;;;;;;;;;5011258;28;20132;-71
2021/09/22 10:19:03;;;;;;;16.50;9.38;;;;;;;;;;5013876;28;20128;-71
2021/09/22 10:21:34;;;;;;;13.07;7.50;;;;;;;;;;5022227;28;20053;-71
2021/09/22 10:24:03;;;;;;;;;;;;;;;;;;5021382;28;20525;-71
2021/09/22 10:26:32;;;;;;;17.52;8.68;;;;;;;;;;5019776;28;20016;-71
2021/09/22 10:29:01;;;;;;;16.45;7.93;;;;;;;;;;5021193;28;20701;-75
2021/09/22 10:31:37;;;;;;;15.25;8.82;;;;;;;;;;5016683;28;20046;-71
2021/09/22 10:34:05;;;;;;;16.73;10.15;;;;;;;;;;5019497;28;20129;-72
2021/09/22 10:36:38;;;;;;;14.18;8.35;;;;;;;;;;5013142;28;20042;-74
2021/09/22 10:39:07;;;;;;;14.02;6.95;;;;;;;;;;5011492;28;20141;-71
2021/09/22 10:41:41;;;;;;;13.05;7.68;;;;;;;;;;5011664;28;20089;-69
2021/09/22 10:44:14;;;;;;;15.77;8.48;;;;;;;;;;5011251;28;20145;-71
2021/09/22 10:46:41;;;;;;;13.60;7.80;;;;;;;;;;5011368;28;20056;-72
2021/09/22 10:49:15;;;;;;;15.52;8.68;;;;;;;;;;5015468;28;20152;-69
2021/09/22 10:51:45;;;;;;;14.00;8.18;;;;;;;;;;5017351;28;20049;-70
2021/09/22 10:54:15;;;;;;;16.02;8.38;;;;;;;;;;5019132;28;20145;-67
2021/09/22 10:56:54;;;;;;;17.55;9.68;;;;;;;;;;5015826;28;20056;-69
2021/09/22 10:59:35;;;;;;;16.98;9.60;;;;;;;;;;5018870;28;20052;-69
2021/09/22 11:02:03;;;;;;;16.65;9.32;;;;;;;;;;5019104;28;20398;-70
2021/09/22 11:04:55;;;;;;;18.05;10.30;;;;;;;;;;5018660;28;20052;-70
2021/09/22 11:07:22;;;;;;;18.77;9.70;;;;;;;;;;5022087;28;20108;-69
2021/09/22 11:09:50;;;;;;;16.13;9.73;;;;;;;;;;5030221;28;20052;-69
2021/09/22 11:12:17;;;;;;;19.55;9.70;;;;;;;;;;5023195;28;20132;-69
2021/09/22 11:14:51;;;;;;;17.08;9.63;;;;;;;;;;5019589;28;20042;-69
2021/09/22 11:17:24;;;;;;;18.33;10.55;;;;;;;;;;5015659;28;20553;-69
2021/09/22 11:19:53;;;;;;;16.48;10.30;;;;;;;;;;5011456;28;20151;-69
2021/09/22 11:22:22;;;;;;;20.17;11.73;;;;;;;;;;5018814;28;20137;-68
2021/09/22 11:24:53;;;;;;;31.27;13.93;;;;;;;;;;5016186;28;20107;-68
2021/09/22 11:27:22;;;;;;;36.03;15.95;;;;;;;;;;5019247;28;20041;-69
2021/09/22 11:29:52;;;;;;;29.13;14.80;;;;;;;;;;5016344;28;20042;-69
2021/09/22 11:32:29;;;;;;;14.88;9.05;;;;;;;;;;5021688;28;20133;-69
2021/09/22 11:34:57;;;;;;;14.70;8.32;;;;;;;;;;5021103;28;20463;-69
2021/09/22 11:37:30;;;;;;;17.75;9.07;;;;;;;;;;5030835;28;20118;-69
2021/09/22 11:40:05;;;;;;;16.35;9.55;;;;;;;;;;5030496;28;20056;-68
2021/09/22 11:42:32;;;;;;;15.73;8.77;;;;;;;;;;5027700;28;20487;-69
2021/09/22 11:45:01;;;;;;;12.18;7.72;;;;;;;;;;5020585;28;20042;-69
2021/09/22 11:47:28;;;;;;;13.25;6.95;;;;;;;;;;5029493;28;20056;-69
2021/09/22 11:49:55;;;;;;;12.40;6.80;;;;;;;;;;5033972;28;20046;-69
2021/09/22 11:52:23;;;;;;;14.52;7.25;;;;;;;;;;5033801;28;20055;-69
2021/09/22 11:54:53;;;;;;;12.55;6.75;;;;;;;;;;5031572;28;20166;-69
2021/09/22 11:57:21;;;;;;;12.75;7.45;;;;;;;;;;5014550;28;20076;-69
2021/09/22 11:59:49;;;;;;;14.10;7.15;;;;;;;;;;5014532;28;20054;-69
2021/09/22 12:02:18;;;;;;;20.33;9.63;;;;;;;;;;5017290;28;20052;-69
2021/09/22 12:04:47;;;;;;;8.23;4.70;;;;;;;;;;5024400;28;20129;-70
2021/09/22 12:07:15;;;;;;;10.68;5.75;;;;;;;;;;5020294;28;20049;-70
2021/09/22 12:09:44;;;;;;;8.88;4.57;;;;;;;;;;5023172;28;20110;-69
2021/09/22 12:12:17;;;;;;;16.85;6.95;;;;;;;;;;5024402;28;20069;-69
2021/09/22 12:14:53;;;;;;;11.55;6.28;;;;;;;;;;5023931;28;20451;-69
2021/09/22 12:17:23;;;;;;;9.73;5.43;;;;;;;;;;5021464;28;20050;-69
2021/09/22 12:19:51;;;;;;;10.57;5.57;;;;;;;;;;5022370;28;20459;-70
2021/09/22 12:22:23;;;;;;;11.80;6.75;;;;;;;;;;5015784;28;20058;-69
2021/09/22 12:24:50;;;;;;;9.82;5.43;;;;;;;;;;5021408;28;20045;-70
2021/09/22 12:27:19;;;;;;;11.02;5.95;;;;;;;;;;5023562;28;20050;-71
2021/09/22 12:29:59;;;;;;;13.30;6.03;;;;;;;;;;5023478;28;20073;-70
2021/09/22 12:32:29;;;;;;;10.23;6.03;;;;;;;;;;5019771;28;20046;-71
2021/09/22 12:34:57;;;;;;;16.35;6.10;;;;;;;;;;5023533;28;20140;-69
2021/09/22 12:37:26;;;;;;;10.80;6.00;;;;;;;;;;5024691;28;20045;-69
2021/09/22 12:40:00;;;;;;;11.30;6.07;;;;;;;;;;5021698;28;20055;-70
2021/09/22 12:42:38;;;;;;;11.05;5.97;;;;;;;;;;5021223;28;20101;-70
2021/09/22 12:45:08;;;;;;;10.57;5.60;;;;;;;;;;5020575;28;20407;-70
2021/09/22 12:47:46;;;;;;;8.63;4.63;;;;;;;;;;5024352;28;20049;-70
2021/09/22 12:50:19;;;;;;;10.18;5.63;;;;;;;;;;5026733;28;20060;-70
2021/09/22 12:52:48;;;;;;;9.50;5.70;;;;;;;;;;4993667;28;20765;-70
2021/09/22 12:55:22;;;;;;;17.05;8.80;;;;;;;;;;5010734;28;20060;-70
2021/09/22 12:57:55;;;;;;;17.42;7.60;;;;;;;;;;5023338;28;20081;-69
2021/09/22 13:00:41;;;;;;;13.50;7.15;;;;;;;;;;5032434;28;20053;-68
2021/09/22 13:03:21;;;;;;;15.80;8.38;;;;;;;;;;5033185;28;20129;-68
2021/09/22 13:05:50;;;;;;;9.35;6.30;;;;;;;;;;5032954;28;20060;-69
2021/09/22 13:08:19;;;;;;;11.68;5.82;;;;;;;;;;5032777;28;20057;-69
2021/09/22 13:11:01;;;;;;;11.90;5.35;;;;;;;;;;5032229;28;20080;-69
2021/09/22 13:13:46;;;;;;;9.60;6.28;;;;;;;;;;5019000;28;20136;-70
2021/09/22 13:16:31;;;;;;;11.68;5.38;;;;;;;;;;5016430;28;20046;-69
2021/09/22 13:19:01;;;;;;;10.82;5.40;;;;;;;;;;5013528;28;20418;-69
2021/09/22 13:21:29;;;;;;;10.00;6.28;;;;;;;;;;5021737;28;20129;-69
2021/09/22 13:23:58;;;;;;;11.32;7.13;;;;;;;;;;5018598;28;20107;-69
2021/09/22 13:26:27;;;;;;;10.57;5.55;;;;;;;;;;5021695;28;20084;-70
2021/09/22 13:28:55;;;;;;;11.02;5.63;;;;;;;;;;5023024;28;20057;-69
2021/09/22 13:31:23;;;;;;;9.27;6.07;;;;;;;;;;5022299;28;20056;-71
2021/09/22 13:33:50;;;;;;;8.68;5.72;;;;;;;;;;5032415;28;20081;-69
2021/09/22 13:36:18;;;;;;;8.60;5.40;;;;;;;;;;5032580;28;20046;-69
2021/09/22 13:38:46;;;;;;;10.50;5.50;;;;;;;;;;5031908;28;20057;-70
2021/09/22 13:41:13;;;;;;;10.52;5.50;;;;;;;;;;5031843;28;20052;-70
2021/09/22 13:43:41;;;;;;;14.02;6.50;;;;;;;;;;5031762;28;20153;-69
2021/09/22 13:46:08;;;;;;;11.60;6.53;;;;;;;;;;5032470;28;20442;-70
2021/09/22 13:48:38;;;;;;;12.35;6.82;;;;;;;;;;5032080;28;20052;-69
2021/09/22 13:51:05;;;;;;;16.00;8.20;;;;;;;;;;5043554;22;20129;-81
2021/09/22 13:53:34;;;;;;;12.63;7.18;;;;;;;;;;5019885;28;20038;-81
2021/09/22 13:56:03;;;;;;;9.82;5.45;;;;;;;;;;5020882;28;20122;-82
2021/09/22 13:58:33;;;;;;;13.07;6.93;;;;;;;;;;5024322;28;20049;-82
2021/09/22 14:01:04;;;;;;;10.10;5.72;;;;;;;;;;5022490;28;20069;-82
2021/09/22 14:03:32;;;;;;;10.73;5.30;;;;;;;;;;5023820;28;20048;-83
2021/09/22 14:06:00;;;;;;;9.40;4.78;;;;;;;;;;5021966;28;20060;-82
2021/09/22 14:08:28;;;;;;;11.02;5.90;;;;;;;;;;5018389;28;20046;-82
2021/09/22 14:10:58;;;;;;;11.25;6.80;;;;;;;;;;5020424;28;20118;-81
2021/09/22 14:13:25;;;;;;;10.87;5.67;;;;;;;;;;5021979;28;20504;-82
2021/09/22 14:15:56;;;;;;;10.75;6.65;;;;;;;;;;5023317;28;20046;-85
2021/09/22 14:18:25;;;;;;;;;;;;;;;;;;5035559;28;20045;-84
2021/09/22 14:20:57;;;;;;;10.80;5.93;;;;;;;;;;5028349;28;19925;-82
2021/09/22 14:23:27;;;;;;;9.38;4.63;;;;;;;;;;5020127;28;20046;-83
2021/09/22 14:25:58;;;;;;;8.50;4.60;;;;;;;;;;5020036;28;20499;-80
2021/09/22 14:28:27;;;;;;;8.60;5.22;;;;;;;;;;5021357;28;20497;-83
2021/09/22 14:30:54;;;;;;;9.52;5.18;;;;;;;;;;5021728;28;20041;-83